Accueil
METAR-TAF:

METAR-TAF

Aéroports :

Kosrae, Micronésie

Aéroport international de Kosrae

latitude: 05-21N, longitude: 162-57E, altitude: 3 m

Observation

Le bulletin a été fait il y a 11 heures et 33 minutes, à 03:50 UTC
Vent 12 kt de nord-est
Température 30°C
Humidité 75%
Pression 1007 hPa
Visibilité: 16.1 km
Nuages épars à une hauteur de 2100 ft
Nuages fragmentés à une hauteur de 30000 ft

METAR: PTSA 230350Z 05012KT 10SM SCT021 BKN300 30/25 A2973 RMK LAST

Heure: 02:23 (15:23 UTC)

Prévision

Le bulletin a été fait il y a 15 heures et 46 minutes, à 23:37 UTC
Prévision valable du 23 à 00 UTC au 23 à 24 UTC
Vent 6 kt de est/nord-est
Visibilité: 10 km
Quelques nuages à une hauteur de 1800 ft
Nuages épars à une hauteur de 14000 ft
averses à proximité

TAF: PTSA 222337Z 2300/2324 06006KT P6SM VCSH FEW018 SCT140

Observations et prévisions météorologiques de plus de 4000 aéroports (messages METAR et TAF).

Les stations disponibles sont représentées par des disques jaunes et rouges sur la carte.

Passer la souris dessus pour voir le nom de la station.

Cliquer dessus pour voir les observations et prévisions météorologiques.

Pour changer de carte: cliquez sur les boutons verts avec une croix noire pour zoomer, sur le bouton vert avec un tiret pour effectuer un zoom arrière, ou sur les flèches vertes pour les cartes adjacentes.


METAR-TAF: